createdAt,value
2022-12-03T00:00:35.781Z,0.56
2022-12-03T00:03:02.313Z,0.64
2022-12-03T00:05:28.975Z,0.68
2022-12-03T00:07:56.302Z,0.64
2022-12-03T00:10:22.778Z,0.64
2022-12-03T00:12:49.171Z,0.67
2022-12-03T00:15:17.431Z,0.71
2022-12-03T00:17:43.843Z,0.70
2022-12-03T00:20:14.686Z,0.65
2022-12-03T00:22:41.078Z,0.68
2022-12-03T00:25:07.878Z,0.72
2022-12-03T00:27:34.267Z,0.78
2022-12-03T00:30:00.879Z,0.86
2022-12-03T00:32:27.270Z,0.65
2022-12-03T00:34:55.746Z,0.37
2022-12-03T00:37:22.355Z,0.37
2022-12-03T00:39:48.809Z,0.52
2022-12-03T00:42:15.245Z,0.60
2022-12-03T00:44:41.701Z,0.47
2022-12-03T00:47:08.158Z,0.37
2022-12-03T00:49:34.646Z,0.35
2022-12-03T00:52:03.055Z,0.43
2022-12-03T00:54:32.083Z,0.50
2022-12-03T00:56:58.827Z,0.38
2022-12-03T00:59:25.282Z,0.36
2022-12-03T01:01:51.771Z,0.53
2022-12-03T01:04:18.337Z,0.40
2022-12-03T01:06:45.693Z,0.32
2022-12-03T01:09:13.745Z,0.31
2022-12-03T01:11:41.476Z,0.36
2022-12-03T01:14:09.515Z,0.48
2022-12-03T01:16:36.457Z,0.39
2022-12-03T01:19:03.293Z,0.33
2022-12-03T01:21:29.724Z,0.30
2022-12-03T01:23:56.506Z,0.36
2022-12-03T01:26:23.070Z,0.40
2022-12-03T01:28:49.566Z,0.31
2022-12-03T01:31:34.649Z,0.27
2022-12-03T01:34:01.198Z,0.29
2022-12-03T01:36:27.881Z,0.39
2022-12-03T01:38:54.291Z,0.38
2022-12-03T01:41:21.722Z,0.28
2022-12-03T01:43:48.822Z,0.19
2022-12-03T01:46:20.510Z,0.19
2022-12-03T01:48:48.182Z,0.33
2022-12-03T01:51:17.384Z,0.23
2022-12-03T01:53:44.163Z,0.16
2022-12-03T01:56:14.955Z,0.09
2022-12-03T01:58:42.070Z,0.19
2022-12-03T02:01:16.851Z,0.19
2022-12-03T02:03:44.264Z,0.12
2022-12-03T02:06:18.873Z,0.08
2022-12-03T02:08:46.671Z,0.11
2022-12-03T02:11:20.484Z,0.28
2022-12-03T02:13:48.109Z,0.21
2022-12-03T02:16:16.566Z,0.12
2022-12-03T02:18:43.458Z,0.06
2022-12-03T02:21:25.398Z,0.16
2022-12-03T02:23:51.862Z,0.16
2022-12-03T02:26:18.426Z,0.03
2022-12-03T02:28:44.877Z,-0.05
2022-12-03T02:31:11.662Z,-0.03
2022-12-03T02:33:38.106Z,0.15
2022-12-03T02:36:04.758Z,0.04
2022-12-03T02:38:32.097Z,0.04
2022-12-03T02:41:04.209Z,-0.02
2022-12-03T02:43:30.914Z,0.07
2022-12-03T02:45:59.576Z,0.06
2022-12-03T02:48:28.330Z,-0.03
2022-12-03T02:50:55.926Z,-0.09
2022-12-03T02:53:26.338Z,-0.06
2022-12-03T02:55:54.222Z,0.05
2022-12-03T02:58:22.010Z,-0.07
2022-12-03T03:00:49.534Z,-0.14
2022-12-03T03:03:17.304Z,-0.11
2022-12-03T03:05:45.557Z,0.00
2022-12-03T03:08:12.653Z,-0.02
2022-12-03T03:10:40.614Z,-0.06
2022-12-03T03:13:09.756Z,-0.15
2022-12-03T03:15:37.293Z,-0.12
2022-12-03T03:18:05.931Z,-0.01
2022-12-03T03:20:34.353Z,-0.09
2022-12-03T03:23:13.600Z,-0.10
2022-12-03T03:25:41.926Z,-0.11
2022-12-03T03:28:08.597Z,0.02
2022-12-03T03:30:35.556Z,0.03
2022-12-03T03:33:02.156Z,-0.04
2022-12-03T03:35:28.697Z,-0.11
2022-12-03T03:37:56.267Z,-0.04
2022-12-03T03:40:22.799Z,0.00
2022-12-03T03:42:49.287Z,-0.10
2022-12-03T03:45:17.955Z,-0.09
2022-12-03T03:47:46.847Z,-0.09
2022-12-03T03:50:14.094Z,0.05
2022-12-03T03:52:41.306Z,-0.03
2022-12-03T03:55:08.295Z,-0.06
2022-12-03T03:57:34.943Z,-0.14
2022-12-03T04:00:01.527Z,-0.06
2022-12-03T04:02:28.046Z,0.02
2022-12-03T04:04:54.772Z,-0.05
2022-12-03T04:07:22.106Z,-0.11
2022-12-03T04:09:48.551Z,-0.11
2022-12-03T04:12:33.614Z,0.00
2022-12-03T04:15:00.127Z,-0.10
2022-12-03T04:17:26.554Z,-0.12
2022-12-03T04:19:52.987Z,-0.16
2022-12-03T04:22:38.071Z,-0.11
2022-12-03T04:25:25.058Z,-0.12
2022-12-03T04:28:09.918Z,-0.23
2022-12-03T04:30:36.437Z,-0.25
2022-12-03T04:33:21.673Z,-0.24
2022-12-03T04:35:48.315Z,-0.16
2022-12-03T04:38:15.704Z,-0.27
2022-12-03T04:41:00.859Z,-0.32
2022-12-03T04:43:27.790Z,-0.35
2022-12-03T04:45:54.276Z,-0.26
2022-12-03T04:48:20.727Z,-0.34
2022-12-03T04:50:49.002Z,-0.40
2022-12-03T04:53:15.410Z,-0.43
2022-12-03T04:55:41.830Z,-0.47
2022-12-03T04:58:08.231Z,-0.37
2022-12-03T05:00:34.654Z,-0.38
2022-12-03T05:03:01.284Z,-0.46
2022-12-03T05:05:28.469Z,-0.50
2022-12-03T05:07:55.590Z,-0.44
2022-12-03T05:10:22.053Z,-0.35
2022-12-03T05:12:48.468Z,-0.41
2022-12-03T05:15:17.104Z,-0.51
2022-12-03T05:17:43.585Z,-0.53
2022-12-03T05:20:31.165Z,-0.47
2022-12-03T05:22:59.702Z,-0.40
2022-12-03T05:25:26.136Z,-0.45
2022-12-03T05:27:54.719Z,-0.51
2022-12-03T05:30:22.406Z,-0.50
2022-12-03T05:32:48.815Z,-0.43
2022-12-03T05:35:15.313Z,-0.48
2022-12-03T05:37:41.715Z,-0.54
2022-12-03T05:40:08.614Z,-0.58
2022-12-03T05:42:53.863Z,-0.57
2022-12-03T05:45:21.386Z,-0.48
2022-12-03T05:47:48.118Z,-0.56
2022-12-03T05:50:14.600Z,-0.63
2022-12-03T05:52:41.121Z,-0.66
2022-12-03T05:55:07.926Z,-0.58
2022-12-03T05:57:34.378Z,-0.56
2022-12-03T06:00:00.942Z,-0.61
2022-12-03T06:02:27.428Z,-0.64
2022-12-03T06:04:55.009Z,-0.66
2022-12-03T06:07:22.143Z,-0.62
2022-12-03T06:09:48.603Z,-0.67
2022-12-03T06:12:17.245Z,-0.74
2022-12-03T06:14:43.723Z,-0.76
2022-12-03T06:17:12.307Z,-0.79
2022-12-03T06:19:38.768Z,-0.73
2022-12-03T06:22:07.480Z,-0.81
2022-12-03T06:24:33.935Z,-0.91
2022-12-03T06:27:02.586Z,-0.97
2022-12-03T06:29:29.054Z,-0.97
2022-12-03T06:31:55.472Z,-0.89
2022-12-03T06:34:22.005Z,-0.92
2022-12-03T06:36:50.077Z,-0.97
2022-12-03T06:39:16.885Z,-0.98
2022-12-03T06:41:43.283Z,-1.01
2022-12-03T06:44:09.802Z,-0.90
2022-12-03T06:46:36.310Z,-0.95
2022-12-03T06:49:04.958Z,-0.99
2022-12-03T06:51:31.357Z,-1.02
2022-12-03T06:53:57.779Z,-1.02
2022-12-03T06:56:24.620Z,-0.94
2022-12-03T06:58:51.526Z,-0.98
2022-12-03T07:01:18.171Z,-1.05
2022-12-03T07:03:44.634Z,-1.13
2022-12-03T07:06:11.702Z,-1.17
2022-12-03T07:08:38.133Z,-1.20
2022-12-03T07:11:04.624Z,-1.11
2022-12-03T07:13:31.056Z,-1.27
2022-12-03T07:15:57.602Z,-1.40
2022-12-03T07:18:24.070Z,-1.47
2022-12-03T07:20:51.021Z,-1.50
2022-12-03T07:23:17.418Z,-1.40
2022-12-03T07:25:43.823Z,-1.49
2022-12-03T07:28:10.261Z,-1.58
2022-12-03T07:30:36.711Z,-1.62
2022-12-03T07:33:03.110Z,-1.64
2022-12-03T07:35:29.555Z,-1.65
2022-12-03T07:37:56.015Z,-1.56
2022-12-03T07:40:22.417Z,-1.62
2022-12-03T07:42:48.848Z,-1.70
2022-12-03T07:45:15.333Z,-1.75
2022-12-03T07:47:42.115Z,-1.80
2022-12-03T07:50:08.934Z,-1.78
2022-12-03T07:52:35.448Z,-1.68
2022-12-03T07:55:01.873Z,-1.73
2022-12-03T07:57:28.374Z,-1.76
2022-12-03T07:59:54.802Z,-1.80
2022-12-03T08:02:21.963Z,-1.86
2022-12-03T08:04:49.494Z,-1.88
2022-12-03T08:07:16.585Z,-1.76
2022-12-03T08:09:43.257Z,-1.86
2022-12-03T08:12:41.986Z,-1.87
2022-12-03T08:15:11.464Z,-1.94
2022-12-03T08:17:40.356Z,-1.94
2022-12-03T08:20:17.675Z,-1.85
2022-12-03T08:22:45.668Z,-1.90
2022-12-03T08:25:19.764Z,-1.92
2022-12-03T08:27:46.259Z,-1.96
2022-12-03T08:30:16.702Z,-2.04
2022-12-03T08:32:43.269Z,-1.97
2022-12-03T08:35:13.858Z,-1.87
2022-12-03T08:37:40.575Z,-1.95
2022-12-03T08:40:19.779Z,-1.96
2022-12-03T08:42:46.405Z,-1.97
2022-12-03T08:45:21.934Z,-1.98
2022-12-03T08:47:48.388Z,-1.86
2022-12-03T08:50:27.384Z,-1.80
2022-12-03T08:52:54.987Z,-1.80
2022-12-03T08:55:38.447Z,-1.77
2022-12-03T08:58:23.487Z,-1.71
2022-12-03T09:00:53.244Z,-1.62
2022-12-03T09:03:20.074Z,-1.59
2022-12-03T09:05:46.624Z,-1.58
2022-12-03T09:08:13.917Z,-1.54
2022-12-03T09:10:40.459Z,-1.51
2022-12-03T09:13:06.937Z,-1.52
2022-12-03T09:15:33.334Z,-1.42
2022-12-03T09:17:59.815Z,-1.44
2022-12-03T09:20:28.613Z,-1.41
2022-12-03T09:22:55.036Z,-1.44
2022-12-03T09:25:21.426Z,-1.40
2022-12-03T09:27:47.966Z,-1.37
2022-12-03T09:30:14.606Z,-1.30
2022-12-03T09:32:41.049Z,-1.24
2022-12-03T09:35:07.911Z,-1.35
2022-12-03T09:37:34.302Z,-1.36
2022-12-03T09:40:00.932Z,-1.36
2022-12-03T09:42:27.382Z,-1.37
2022-12-03T09:44:54.114Z,-1.36
2022-12-03T09:47:20.991Z,-1.33
2022-12-03T09:49:47.427Z,-1.31
2022-12-03T09:52:21.302Z,-1.22
2022-12-03T09:54:48.099Z,-1.21
2022-12-03T09:57:15.376Z,-1.26
2022-12-03T09:59:42.126Z,-1.21
2022-12-03T10:02:17.011Z,-1.16
2022-12-03T10:04:43.579Z,-1.09
2022-12-03T10:07:10.807Z,-1.19
2022-12-03T10:09:37.285Z,-1.17
2022-12-03T10:12:03.851Z,-1.16
2022-12-03T10:14:30.429Z,-1.06
2022-12-03T10:16:58.229Z,-0.98
2022-12-03T10:19:42.881Z,-0.98
2022-12-03T10:22:10.162Z,-0.96
2022-12-03T10:24:39.136Z,-1.09
2022-12-03T10:27:21.545Z,-1.33
2022-12-03T10:30:00.519Z,-1.33
2022-12-03T10:32:38.565Z,-1.16
2022-12-03T10:35:12.998Z,-1.17
2022-12-03T10:37:58.643Z,-1.28
2022-12-03T10:40:35.861Z,-1.20
2022-12-03T10:43:14.314Z,-1.07
2022-12-03T10:45:41.070Z,-1.18
2022-12-03T10:48:19.505Z,-1.22
2022-12-03T10:50:47.391Z,-1.22
2022-12-03T10:53:13.790Z,-1.21
2022-12-03T10:55:41.998Z,-1.19
2022-12-03T10:58:17.042Z,-1.09
2022-12-03T11:00:43.487Z,-1.01
2022-12-03T11:09:17.892Z,-1.15
2022-12-03T11:11:44.746Z,-1.12
2022-12-03T11:14:11.674Z,-1.17
2022-12-03T11:16:41.530Z,-1.06
2022-12-03T11:19:07.999Z,-1.08
2022-12-03T11:21:34.839Z,-1.16
2022-12-03T11:24:02.869Z,-1.18
2022-12-03T11:26:31.850Z,-1.17
2022-12-03T11:28:59.339Z,-1.16
2022-12-03T11:31:47.439Z,-1.06
2022-12-03T11:34:23.329Z,-1.02
2022-12-03T11:37:08.858Z,-1.10
2022-12-03T11:39:50.825Z,-1.17
2022-12-03T11:42:26.739Z,-1.20
2022-12-03T11:45:05.483Z,-1.26
2022-12-03T11:47:42.681Z,-1.25
2022-12-03T11:50:22.054Z,-1.19
2022-12-03T11:52:53.713Z,-1.30
2022-12-03T11:55:48.586Z,-1.33
2022-12-03T11:58:33.843Z,-1.35
2022-12-03T12:01:01.610Z,-1.35
2022-12-03T12:18:57.355Z,-1.17
2022-12-03T12:21:43.747Z,-1.01
2022-12-03T12:24:29.074Z,-1.13
2022-12-03T12:26:56.221Z,-1.18
2022-12-03T12:29:22.842Z,-1.19
2022-12-03T12:31:54.207Z,-1.17
2022-12-03T12:34:23.951Z,-1.06
2022-12-03T12:36:50.835Z,-1.07
2022-12-03T12:39:17.596Z,-1.16
2022-12-03T12:41:49.249Z,-1.17
2022-12-03T12:44:15.919Z,-1.20
2022-12-03T12:46:48.349Z,-1.16
2022-12-03T12:49:15.826Z,-1.02
2022-12-03T12:51:46.495Z,-1.11
2022-12-03T12:54:14.616Z,-1.17
2022-12-03T12:56:43.830Z,-1.15
2022-12-03T12:59:16.873Z,-1.15
2022-12-03T13:12:24.100Z,-1.22
2022-12-03T13:14:52.326Z,-1.16
2022-12-03T13:17:22.683Z,-0.98
2022-12-03T13:19:55.854Z,-0.95
2022-12-03T13:22:29.823Z,-1.02
2022-12-03T13:24:58.797Z,-1.12
2022-12-03T13:27:28.903Z,-1.15
2022-12-03T13:29:55.907Z,-1.12
2022-12-03T13:32:34.079Z,-0.98
2022-12-03T13:35:05.253Z,-1.12
2022-12-03T13:37:32.237Z,-1.07
2022-12-03T13:40:06.250Z,-1.12
2022-12-03T13:42:42.434Z,-1.15
2022-12-03T13:45:15.001Z,-0.99
2022-12-03T13:47:43.487Z,-1.10
2022-12-03T13:50:33.492Z,-1.21
2022-12-03T13:53:06.851Z,-1.24
2022-12-03T13:55:35.456Z,-1.21
2022-12-03T13:58:02.137Z,-1.22
2022-12-03T14:00:28.923Z,-1.11
2022-12-03T14:02:55.524Z,-1.14
2022-12-03T14:05:22.130Z,-1.17
2022-12-03T14:07:48.882Z,-1.25
2022-12-03T14:10:16.391Z,-1.24
2022-12-03T14:12:43.726Z,-1.19
2022-12-03T14:15:13.378Z,-1.08
2022-12-03T14:17:39.906Z,-1.19
2022-12-03T14:20:06.788Z,-1.25
2022-12-03T14:22:33.335Z,-1.23
2022-12-03T14:24:59.730Z,-1.24
2022-12-03T14:27:26.374Z,-1.13
2022-12-03T14:29:55.040Z,-1.18
2022-12-03T14:32:21.742Z,-1.24
2022-12-03T14:34:48.719Z,-1.26
2022-12-03T14:37:15.987Z,-1.27
2022-12-03T14:39:42.585Z,-1.27
2022-12-03T14:42:14.785Z,-1.13
2022-12-03T14:44:42.452Z,-1.21
2022-12-03T14:47:08.947Z,-1.27
2022-12-03T14:49:35.402Z,-1.36
2022-12-03T14:52:02.234Z,-1.37
2022-12-03T14:54:29.014Z,-1.30
2022-12-03T14:56:55.538Z,-1.19
2022-12-03T14:59:27.388Z,-1.28
2022-12-03T15:01:54.736Z,-1.34
2022-12-03T15:04:21.412Z,-1.33
2022-12-03T15:06:47.909Z,-1.33
2022-12-03T15:09:14.434Z,-1.20
2022-12-03T15:11:45.893Z,-1.20
2022-12-03T15:14:13.603Z,-1.27
2022-12-03T15:16:40.105Z,-1.36
2022-12-03T15:19:06.606Z,-1.35
2022-12-03T15:21:34.946Z,-1.27
2022-12-03T15:24:01.864Z,-1.20
2022-12-03T15:26:28.355Z,-1.27
2022-12-03T15:28:54.905Z,-1.33
2022-12-03T15:31:21.553Z,-1.34
2022-12-03T15:33:48.110Z,-1.37
2022-12-03T15:36:14.832Z,-1.25
2022-12-03T15:38:41.958Z,-1.18
2022-12-03T15:41:28.825Z,-1.24
2022-12-03T15:43:56.663Z,-1.32
2022-12-03T15:46:23.520Z,-1.36
2022-12-03T15:48:49.957Z,-1.42
2022-12-03T15:51:16.714Z,-1.32
2022-12-03T15:53:43.129Z,-1.22
2022-12-03T15:56:09.572Z,-1.35
2022-12-03T15:58:36.012Z,-1.44
2022-12-03T16:01:02.526Z,-1.52
2022-12-03T16:03:29.080Z,-1.59
2022-12-03T16:05:55.570Z,-1.64
2022-12-03T16:08:22.283Z,-1.60
2022-12-03T16:10:48.739Z,-1.55
2022-12-03T16:13:15.870Z,-1.43
2022-12-03T16:15:43.273Z,-1.44
2022-12-03T16:18:09.746Z,-1.46
2022-12-03T16:20:36.441Z,-1.49
2022-12-03T16:23:02.934Z,-1.31
2022-12-03T16:25:29.440Z,-1.20
2022-12-03T16:27:56.605Z,-1.13
2022-12-03T16:30:24.449Z,-1.07
2022-12-03T16:32:50.907Z,-1.18
2022-12-03T16:35:17.562Z,-1.23
2022-12-03T16:37:44.062Z,-1.12
2022-12-03T16:40:10.773Z,-1.02
2022-12-03T16:42:38.046Z,-1.22
2022-12-03T16:45:04.821Z,-1.30
2022-12-03T16:47:34.321Z,-1.16
2022-12-03T16:50:01.813Z,-1.14
2022-12-03T16:52:28.322Z,-1.28
2022-12-03T16:54:54.754Z,-1.29
2022-12-03T16:57:21.318Z,-1.16
2022-12-03T16:59:47.720Z,-1.18
2022-12-03T17:02:14.359Z,-1.27
2022-12-03T17:04:41.067Z,-1.28
2022-12-03T17:07:07.469Z,-1.13
2022-12-03T17:09:33.978Z,-1.26
2022-12-03T17:12:01.155Z,-1.47
2022-12-03T17:14:33.086Z,-1.46
2022-12-03T17:16:59.946Z,-1.30
2022-12-03T17:19:26.464Z,-1.54
2022-12-03T17:21:54.189Z,-1.61
2022-12-03T17:24:21.702Z,-1.53
2022-12-03T17:26:48.355Z,-1.54
2022-12-03T17:29:14.826Z,-1.62
2022-12-03T17:31:42.456Z,-1.64
2022-12-03T17:34:09.320Z,-1.49
2022-12-03T17:36:35.763Z,-1.71
2022-12-03T17:39:02.217Z,-1.84
2022-12-03T17:41:28.758Z,-1.77
2022-12-03T17:43:55.210Z,-1.70
2022-12-03T17:46:22.297Z,-1.91
2022-12-03T17:48:48.858Z,-2.02
2022-12-03T17:51:17.524Z,-1.90
2022-12-03T17:53:43.915Z,-2.00
2022-12-03T17:56:10.399Z,-2.10
2022-12-03T17:58:36.858Z,-2.00
2022-12-03T18:01:03.849Z,-1.86
2022-12-03T18:03:30.943Z,-2.01
2022-12-03T18:05:59.610Z,-2.08
2022-12-03T18:08:26.004Z,-1.94
2022-12-03T18:10:52.482Z,-1.97
2022-12-03T18:13:19.554Z,-2.07
2022-12-03T18:15:46.081Z,-2.16
2022-12-03T18:18:12.567Z,-2.00
2022-12-03T18:20:39.055Z,-2.09
2022-12-03T18:23:05.615Z,-2.10
2022-12-03T18:25:32.149Z,-2.14
2022-12-03T18:27:58.619Z,-2.04
2022-12-03T18:30:25.265Z,-2.12
2022-12-03T18:32:51.709Z,-2.41
2022-12-03T18:35:18.215Z,-2.38
2022-12-03T18:37:44.941Z,-2.33
2022-12-03T18:40:18.956Z,-2.42
2022-12-03T18:42:45.728Z,-2.41
2022-12-03T18:45:13.069Z,-2.36
2022-12-03T18:47:40.037Z,-2.44
2022-12-03T18:50:07.460Z,-2.55
2022-12-03T18:52:34.030Z,-2.60
2022-12-03T18:55:00.431Z,-2.60
2022-12-03T18:57:27.063Z,-2.65
2022-12-03T18:59:53.695Z,-2.82
2022-12-03T19:03:02.032Z,-2.86
2022-12-03T19:05:10.118Z,-2.79
2022-12-03T19:07:36.922Z,-2.84
2022-12-03T19:10:03.980Z,-2.91
2022-12-03T19:12:31.757Z,-2.90
2022-12-03T19:14:58.266Z,-2.89
2022-12-03T19:17:24.785Z,-2.93
2022-12-03T19:19:51.386Z,-3.06
2022-12-03T19:22:17.987Z,-3.07
2022-12-03T19:24:44.605Z,-3.16
2022-12-03T19:27:11.022Z,-3.10
2022-12-03T19:29:39.851Z,-3.26
2022-12-03T19:32:08.302Z,-3.29
2022-12-03T19:34:34.826Z,-3.30
2022-12-03T19:37:01.226Z,-3.26
2022-12-03T19:39:27.658Z,-3.10
2022-12-03T19:41:54.147Z,-3.06
2022-12-03T19:44:20.605Z,-3.07
2022-12-03T19:46:48.917Z,-3.00
2022-12-03T19:49:16.830Z,-2.86
2022-12-03T19:51:43.942Z,-2.78
2022-12-03T19:54:11.205Z,-2.82
2022-12-03T19:56:37.661Z,-2.89
2022-12-03T19:59:05.038Z,-2.94
2022-12-03T20:01:33.260Z,-2.89
2022-12-03T20:04:00.800Z,-2.91
2022-12-03T20:06:28.637Z,-3.16
2022-12-03T20:08:59.393Z,-3.26
2022-12-03T20:11:27.907Z,-3.19
2022-12-03T20:14:01.765Z,-3.10
2022-12-03T20:16:28.840Z,-3.01
2022-12-03T20:18:56.963Z,-2.88
2022-12-03T20:21:23.841Z,-2.81
2022-12-03T20:23:50.291Z,-3.38
2022-12-03T20:26:18.040Z,-3.77
2022-12-03T20:28:44.974Z,-3.75
2022-12-03T20:31:13.684Z,-3.78
2022-12-03T20:33:41.333Z,-3.51
2022-12-03T20:36:08.153Z,-3.45
2022-12-03T20:38:34.893Z,-3.67
2022-12-03T20:41:02.286Z,-3.96
2022-12-03T20:43:28.721Z,-4.02
2022-12-03T20:46:01.074Z,-3.82
2022-12-03T20:48:29.323Z,-3.84
2022-12-03T20:50:55.713Z,-3.89
2022-12-03T20:53:25.207Z,-3.79
2022-12-03T20:55:55.633Z,-3.74
2022-12-03T20:58:22.077Z,-3.78
2022-12-03T21:00:48.538Z,-3.84
2022-12-03T21:03:15.012Z,-3.81
2022-12-03T21:05:42.614Z,-3.75
2022-12-03T21:08:09.248Z,-3.68
2022-12-03T21:10:46.668Z,-3.59
2022-12-03T21:13:15.305Z,-3.52
2022-12-03T21:15:42.757Z,-3.55
2022-12-03T21:18:10.357Z,-3.50
2022-12-03T21:20:54.874Z,-3.40
2022-12-03T21:23:21.625Z,-3.25
2022-12-03T21:25:48.178Z,-3.15
2022-12-03T21:28:14.611Z,-3.06
2022-12-03T21:30:42.887Z,-3.01
2022-12-03T21:33:09.433Z,-2.97
2022-12-03T21:35:36.667Z,-2.91
2022-12-03T21:38:03.563Z,-2.87
2022-12-03T21:40:30.122Z,-2.82
2022-12-03T21:42:56.561Z,-2.78
2022-12-03T21:45:25.122Z,-2.74
2022-12-03T21:47:51.970Z,-2.74
2022-12-03T21:50:18.599Z,-2.71
2022-12-03T21:52:45.020Z,-2.69
2022-12-03T21:55:14.518Z,-2.69
2022-12-03T21:57:41.151Z,-2.67
2022-12-03T22:00:08.564Z,-2.61
2022-12-03T22:02:35.111Z,-2.57
2022-12-03T22:05:01.597Z,-2.50
2022-12-03T22:07:29.943Z,-2.38
2022-12-03T22:09:56.611Z,-2.41
2022-12-03T22:12:24.054Z,-2.71
2022-12-03T22:14:51.078Z,-2.93
2022-12-03T22:17:17.568Z,-2.86
2022-12-03T22:19:44.026Z,-2.71
2022-12-03T22:22:10.527Z,-2.85
2022-12-03T22:24:37.142Z,-2.98
2022-12-03T22:27:05.054Z,-2.96
2022-12-03T22:29:31.565Z,-2.94
2022-12-03T22:31:57.957Z,-2.96
2022-12-03T22:34:26.173Z,-2.99
2022-12-03T22:36:52.636Z,-3.02
2022-12-03T22:39:19.236Z,-3.01
2022-12-03T22:41:45.909Z,-2.97
2022-12-03T22:44:12.742Z,-3.00
2022-12-03T22:46:39.254Z,-3.07
2022-12-03T22:49:07.644Z,-3.07
2022-12-03T22:51:34.346Z,-3.11
2022-12-03T22:54:02.070Z,-3.02
2022-12-03T22:56:29.751Z,-3.03
2022-12-03T22:58:56.726Z,-3.09
2022-12-03T23:01:30.364Z,-3.08
2022-12-03T23:03:57.236Z,-3.10
2022-12-03T23:06:23.857Z,-3.14
2022-12-03T23:08:50.430Z,-3.08
2022-12-03T23:11:19.191Z,-3.14
2022-12-03T23:13:48.466Z,-3.03
2022-12-03T23:16:26.205Z,-3.06
2022-12-03T23:18:53.083Z,-2.99
2022-12-03T23:21:28.522Z,-2.99
2022-12-03T23:23:56.479Z,-3.00
2022-12-03T23:26:24.638Z,-3.01
2022-12-03T23:28:51.092Z,-3.03
2022-12-03T23:31:20.298Z,-3.01
2022-12-03T23:33:48.798Z,-3.14
2022-12-03T23:36:17.692Z,-3.20
2022-12-03T23:38:44.130Z,-3.22
2022-12-03T23:41:12.031Z,-3.22
2022-12-03T23:43:39.181Z,-3.20
2022-12-03T23:46:10.572Z,-3.20
2022-12-03T23:48:37.474Z,-3.21
2022-12-03T23:51:07.987Z,-3.21
2022-12-03T23:53:35.234Z,-3.23
2022-12-03T23:56:12.268Z,-3.18
2022-12-03T23:58:40.837Z,-3.01
